createdAt,value
2023-05-21T00:00:03.355Z,46.66
2023-05-21T00:01:03.354Z,50.94
2023-05-21T00:02:03.349Z,52.61
2023-05-21T00:03:03.389Z,49.00
2023-05-21T00:04:03.340Z,52.12
2023-05-21T00:05:03.348Z,54.39
2023-05-21T00:06:03.339Z,49.76
2023-05-21T00:07:03.320Z,48.87
2023-05-21T00:08:03.287Z,50.24
2023-05-21T00:09:03.297Z,52.14
2023-05-21T00:10:03.312Z,52.76
2023-05-21T00:11:03.269Z,50.08
2023-05-21T00:12:03.241Z,53.15
2023-05-21T00:13:03.248Z,51.56
2023-05-21T00:14:03.273Z,52.49
2023-05-21T00:15:03.252Z,53.77
2023-05-21T00:16:03.306Z,50.57
2023-05-21T00:17:03.216Z,50.81
2023-05-21T00:18:03.210Z,52.82
2023-05-21T00:19:03.233Z,51.88
2023-05-21T00:20:03.193Z,47.85
2023-05-21T00:21:03.217Z,48.96
2023-05-21T00:22:03.202Z,47.30
2023-05-21T00:23:03.180Z,51.03
2023-05-21T00:24:03.192Z,49.54
2023-05-21T00:25:03.214Z,52.41
2023-05-21T00:26:03.161Z,52.00
2023-05-21T00:27:03.172Z,54.26
2023-05-21T00:28:03.132Z,52.14
2023-05-21T00:29:03.169Z,50.84
2023-05-21T00:30:03.146Z,49.29
2023-05-21T00:31:03.099Z,51.86
2023-05-21T00:32:03.512Z,53.55
2023-05-21T00:33:03.236Z,50.63
2023-05-21T00:34:03.101Z,48.36
2023-05-21T00:35:03.902Z,51.25
2023-05-21T00:36:03.099Z,48.94
2023-05-21T00:37:03.085Z,48.71
2023-05-21T00:38:03.103Z,50.47
2023-05-21T00:39:03.098Z,47.74
2023-05-21T00:40:03.082Z,50.18
2023-05-21T00:41:03.054Z,49.17
2023-05-21T00:42:03.042Z,52.68
2023-05-21T00:43:03.042Z,50.79
2023-05-21T00:44:03.000Z,51.78
2023-05-21T00:45:02.985Z,51.33
2023-05-21T00:46:03.068Z,52.01
2023-05-21T00:47:02.986Z,50.16
2023-05-21T00:48:03.062Z,53.59
2023-05-21T00:49:02.995Z,53.39
2023-05-21T00:50:03.009Z,52.39
2023-05-21T00:51:03.012Z,51.95
2023-05-21T00:52:03.007Z,52.38
2023-05-21T00:53:03.028Z,51.14
2023-05-21T00:54:03.008Z,50.45
2023-05-21T00:55:03.022Z,51.07
2023-05-21T00:56:02.970Z,47.58
2023-05-21T00:57:03.011Z,54.78
2023-05-21T00:58:03.019Z,49.76
2023-05-21T00:59:03.006Z,49.89
2023-05-21T01:00:03.033Z,50.54
2023-05-21T01:01:03.125Z,51.08
2023-05-21T01:02:03.069Z,49.37
2023-05-21T01:03:03.080Z,53.58
2023-05-21T01:04:03.006Z,50.53
2023-05-21T01:05:03.038Z,54.35
2023-05-21T01:06:03.032Z,48.27
2023-05-21T01:07:03.031Z,49.15
2023-05-21T01:08:03.012Z,52.36
2023-05-21T01:09:04.968Z,51.85
2023-05-21T01:10:03.038Z,51.56
2023-05-21T01:11:03.060Z,48.33
2023-05-21T01:12:03.065Z,50.12
2023-05-21T01:13:03.068Z,45.60
2023-05-21T01:14:03.078Z,51.94
2023-05-21T01:15:03.067Z,55.41
2023-05-21T01:16:03.080Z,53.10
2023-05-21T01:17:03.150Z,51.35
2023-05-21T01:18:03.169Z,50.65
2023-05-21T01:19:03.332Z,50.13
2023-05-21T01:20:03.223Z,53.71
2023-05-21T01:21:03.194Z,48.55
2023-05-21T01:22:03.132Z,47.28
2023-05-21T01:23:03.158Z,53.74
2023-05-21T01:24:03.182Z,48.40
2023-05-21T01:25:03.203Z,50.87
2023-05-21T01:26:03.224Z,47.54
2023-05-21T01:27:03.173Z,51.38
2023-05-21T01:28:03.222Z,51.26
2023-05-21T01:29:03.223Z,46.92
2023-05-21T01:30:03.244Z,48.89
2023-05-21T01:31:03.261Z,47.63
2023-05-21T01:32:03.248Z,47.64
2023-05-21T01:33:03.461Z,48.39
2023-05-21T01:34:03.288Z,47.71
2023-05-21T01:35:03.339Z,47.57
2023-05-21T01:36:03.321Z,48.68
2023-05-21T01:37:03.308Z,50.55
2023-05-21T01:38:03.333Z,50.44
2023-05-21T01:39:03.315Z,51.41
2023-05-21T01:40:03.350Z,50.38
2023-05-21T01:41:03.334Z,49.46
2023-05-21T01:42:03.379Z,53.06
2023-05-21T01:43:03.376Z,49.59
2023-05-21T01:44:03.399Z,50.27
2023-05-21T01:45:03.554Z,49.56
2023-05-21T01:46:03.444Z,49.25
2023-05-21T01:47:03.473Z,47.83
2023-05-21T01:48:03.528Z,49.36
2023-05-21T01:49:03.505Z,47.76
2023-05-21T01:50:03.519Z,46.97
2023-05-21T01:51:03.554Z,48.15
2023-05-21T01:52:03.536Z,47.73
2023-05-21T01:53:03.600Z,50.09
2023-05-21T01:54:03.606Z,47.24
2023-05-21T01:55:03.632Z,46.51
2023-05-21T01:56:03.641Z,50.36
2023-05-21T01:57:03.649Z,48.79
2023-05-21T01:58:03.711Z,50.00
2023-05-21T01:59:03.673Z,48.14
2023-05-21T02:00:03.693Z,47.87
2023-05-21T02:01:03.740Z,48.87
2023-05-21T02:02:03.816Z,46.80
2023-05-21T02:03:03.918Z,47.69
2023-05-21T02:04:03.850Z,49.47
2023-05-21T02:05:03.836Z,44.63
2023-05-21T02:06:03.836Z,47.95
2023-05-21T02:07:03.862Z,48.44
2023-05-21T02:08:03.855Z,47.94
2023-05-21T02:09:03.936Z,47.29
2023-05-21T02:10:03.950Z,48.14
2023-05-21T02:11:03.988Z,47.00
2023-05-21T02:12:04.015Z,50.48
2023-05-21T02:13:03.994Z,48.44
2023-05-21T02:14:04.109Z,50.64
2023-05-21T02:15:04.052Z,48.93
2023-05-21T02:16:04.220Z,48.90
2023-05-21T02:17:04.120Z,48.27
2023-05-21T02:18:04.182Z,49.57
2023-05-21T02:19:04.223Z,48.92
2023-05-21T02:20:04.140Z,50.49
2023-05-21T02:21:04.238Z,49.59
2023-05-21T02:22:04.257Z,50.81
2023-05-21T02:23:04.333Z,48.50
2023-05-21T02:24:04.282Z,49.80
2023-05-21T02:25:04.314Z,47.64
2023-05-21T02:26:04.400Z,52.84
2023-05-21T02:27:04.394Z,52.35
2023-05-21T02:28:04.462Z,49.45
2023-05-21T02:29:04.469Z,48.70
2023-05-21T02:30:04.473Z,47.08
2023-05-21T02:31:04.509Z,50.76
2023-05-21T02:32:04.528Z,49.87
2023-05-21T02:33:04.729Z,50.91
2023-05-21T02:34:04.642Z,50.62
2023-05-21T02:35:04.654Z,51.86
2023-05-21T02:36:04.665Z,50.11
2023-05-21T02:37:04.686Z,52.01
2023-05-21T02:38:04.677Z,48.89
2023-05-21T02:39:04.733Z,48.90
2023-05-21T02:40:04.797Z,49.15
2023-05-21T02:41:04.769Z,48.83
2023-05-21T02:42:04.823Z,49.76
2023-05-21T02:43:04.816Z,50.72
2023-05-21T02:44:04.921Z,47.98
2023-05-21T02:45:04.926Z,51.51
2023-05-21T02:46:05.060Z,50.37
2023-05-21T02:47:04.979Z,51.67
2023-05-21T02:48:05.100Z,50.84
2023-05-21T02:49:05.046Z,48.34
2023-05-21T02:50:05.099Z,51.66
2023-05-21T02:51:05.161Z,50.67
2023-05-21T02:52:05.179Z,50.55
2023-05-21T02:53:05.215Z,50.59
2023-05-21T02:54:05.275Z,50.61
2023-05-21T02:55:05.269Z,49.59
2023-05-21T02:56:05.319Z,49.02
2023-05-21T02:57:05.389Z,47.30
2023-05-21T02:58:05.409Z,50.26
2023-05-21T02:59:05.436Z,49.45
2023-05-21T03:00:05.501Z,51.40
2023-05-21T03:01:05.537Z,47.46
2023-05-21T03:02:05.615Z,46.09
2023-05-21T03:03:05.711Z,52.50
2023-05-21T03:04:05.660Z,44.96
2023-05-21T03:05:05.718Z,48.26
2023-05-21T03:06:05.733Z,50.74
2023-05-21T03:07:05.769Z,47.95
2023-05-21T03:08:05.841Z,49.42
2023-05-21T03:09:05.861Z,50.02
2023-05-21T03:10:05.880Z,47.44
2023-05-21T03:11:05.906Z,49.57
2023-05-21T03:12:05.972Z,48.70
2023-05-21T03:13:07.466Z,51.95
2023-05-21T03:14:06.016Z,51.32
2023-05-21T03:15:06.001Z,49.93
2023-05-21T03:16:05.953Z,50.11
2023-05-21T03:17:06.341Z,48.69
2023-05-21T03:18:05.983Z,46.04
2023-05-21T03:19:06.013Z,49.52
2023-05-21T03:20:05.916Z,48.86
2023-05-21T03:21:05.937Z,48.57
2023-05-21T03:22:05.939Z,48.77
2023-05-21T03:23:05.945Z,50.56
2023-05-21T03:24:05.937Z,50.82
2023-05-21T03:25:05.922Z,49.02
2023-05-21T03:26:05.890Z,49.87
2023-05-21T03:27:05.908Z,50.81
2023-05-21T03:28:05.922Z,47.20
2023-05-21T03:29:05.842Z,50.54
2023-05-21T03:30:06.716Z,47.38
2023-05-21T03:31:05.899Z,49.46
2023-05-21T03:32:05.909Z,48.29
2023-05-21T03:33:05.876Z,47.87
2023-05-21T03:34:05.849Z,49.00
2023-05-21T03:35:05.823Z,51.64
2023-05-21T03:36:05.818Z,47.63
2023-05-21T03:37:05.836Z,46.21
2023-05-21T03:38:05.842Z,48.93
2023-05-21T03:39:05.845Z,48.86
2023-05-21T03:40:05.804Z,48.34
2023-05-21T03:41:05.795Z,49.61
2023-05-21T03:42:05.910Z,50.20
2023-05-21T03:43:05.798Z,46.57
2023-05-21T03:44:05.785Z,48.36
2023-05-21T03:45:05.789Z,49.27
2023-05-21T03:46:05.816Z,48.19
2023-05-21T03:47:05.749Z,47.88
2023-05-21T03:48:05.768Z,48.00
2023-05-21T03:49:05.753Z,48.69
2023-05-21T03:50:05.710Z,49.82
2023-05-21T03:51:05.721Z,50.08
2023-05-21T03:52:05.765Z,47.41
2023-05-21T03:53:05.851Z,47.80
2023-05-21T03:54:05.877Z,47.59
2023-05-21T03:55:05.902Z,50.28
2023-05-21T03:56:05.902Z,46.51
2023-05-21T03:57:05.952Z,48.51
2023-05-21T03:58:06.032Z,46.58
2023-05-21T03:59:06.049Z,45.13
2023-05-21T04:00:06.048Z,47.46
2023-05-21T04:01:06.067Z,47.86
2023-05-21T04:02:06.115Z,46.92
2023-05-21T04:03:06.266Z,47.69
2023-05-21T04:04:06.313Z,46.55
2023-05-21T04:05:06.224Z,43.26
2023-05-21T04:06:06.263Z,47.46
2023-05-21T04:07:06.295Z,45.92
2023-05-21T04:08:06.349Z,46.34
2023-05-21T04:09:06.356Z,47.18
2023-05-21T04:10:06.397Z,46.27
2023-05-21T04:11:06.413Z,48.18
2023-05-21T04:12:06.456Z,48.51
2023-05-21T04:13:06.555Z,48.88
2023-05-21T04:14:06.508Z,46.78
2023-05-21T04:15:06.541Z,45.97
2023-05-21T04:16:06.540Z,40.05
2023-05-21T04:17:06.524Z,41.80
2023-05-21T04:18:06.561Z,39.95
2023-05-21T04:19:07.149Z,40.94
2023-05-21T04:20:06.579Z,36.86
2023-05-21T04:21:06.644Z,39.58
2023-05-21T04:22:06.684Z,41.99
2023-05-21T04:23:06.753Z,43.55
2023-05-21T04:24:06.760Z,45.41
2023-05-21T04:25:06.829Z,47.13
2023-05-21T04:26:06.891Z,46.16
2023-05-21T04:27:06.932Z,48.27
2023-05-21T04:28:07.051Z,50.85
2023-05-21T04:29:07.044Z,53.02
2023-05-21T04:30:07.116Z,48.11
2023-05-21T04:31:07.145Z,47.66
2023-05-21T04:32:07.181Z,48.35
2023-05-21T04:33:07.290Z,47.28
2023-05-21T04:34:07.238Z,44.93
2023-05-21T04:35:07.302Z,44.90
2023-05-21T04:36:07.368Z,43.45
2023-05-21T04:37:07.449Z,45.28
2023-05-21T04:38:07.471Z,44.57
2023-05-21T04:39:07.528Z,43.46
2023-05-21T04:40:07.579Z,44.75
2023-05-21T04:41:07.625Z,43.27
2023-05-21T04:42:07.703Z,42.74
2023-05-21T04:43:07.763Z,44.48
2023-05-21T04:44:07.832Z,45.49
2023-05-21T04:45:07.883Z,44.14
2023-05-21T04:46:07.952Z,41.83
2023-05-21T04:47:08.089Z,43.35
2023-05-21T04:48:08.147Z,42.99
2023-05-21T04:49:08.083Z,42.31
2023-05-21T04:50:08.177Z,44.20
2023-05-21T04:51:08.226Z,46.64
2023-05-21T04:52:08.312Z,44.63
2023-05-21T04:53:08.320Z,39.38
2023-05-21T04:54:08.417Z,41.76
2023-05-21T04:55:08.462Z,41.02
2023-05-21T04:56:08.466Z,43.88
2023-05-21T04:57:08.552Z,42.98
2023-05-21T04:58:08.633Z,43.96
2023-05-21T04:59:08.655Z,39.66
2023-05-21T05:00:08.753Z,38.75
2023-05-21T05:01:08.806Z,37.74
2023-05-21T05:02:08.808Z,38.15
2023-05-21T05:03:08.983Z,41.24
2023-05-21T05:04:08.930Z,39.30
2023-05-21T05:05:08.996Z,38.34
2023-05-21T05:06:09.048Z,41.17
2023-05-21T05:07:09.111Z,39.96
2023-05-21T05:08:09.152Z,42.94
2023-05-21T05:09:09.201Z,41.24
2023-05-21T05:10:09.287Z,39.46
2023-05-21T05:11:09.335Z,38.82
2023-05-21T05:12:09.396Z,40.52
2023-05-21T05:13:09.461Z,36.77
2023-05-21T05:14:09.509Z,37.48
2023-05-21T05:15:09.574Z,39.24
2023-05-21T05:16:09.644Z,37.44
2023-05-21T05:17:09.823Z,40.84
2023-05-21T05:18:09.766Z,38.86
2023-05-21T05:19:09.836Z,39.72
2023-05-21T05:20:09.858Z,40.30
2023-05-21T05:21:09.931Z,37.11
2023-05-21T05:22:11.839Z,39.40
2023-05-21T05:23:09.964Z,43.96
2023-05-21T05:24:09.968Z,40.92
2023-05-21T05:25:09.983Z,37.60
2023-05-21T05:26:09.959Z,37.42
2023-05-21T05:27:09.944Z,36.72
2023-05-21T05:28:09.959Z,40.69
2023-05-21T05:29:09.923Z,34.88
2023-05-21T05:30:09.929Z,37.92
2023-05-21T05:31:09.935Z,40.28
2023-05-21T05:32:09.952Z,37.01
2023-05-21T05:33:09.882Z,34.64
2023-05-21T05:34:09.900Z,35.18
2023-05-21T05:35:09.899Z,34.83
2023-05-21T05:36:09.875Z,34.65
2023-05-21T05:37:09.890Z,35.43
2023-05-21T05:38:09.878Z,36.20
2023-05-21T05:39:09.857Z,36.96
2023-05-21T05:40:09.859Z,31.24
2023-05-21T05:41:09.838Z,34.80
2023-05-21T05:42:09.853Z,35.24
2023-05-21T05:43:09.865Z,35.94
2023-05-21T05:44:11.013Z,35.04
2023-05-21T05:45:09.815Z,35.14
2023-05-21T05:46:09.835Z,33.18
2023-05-21T05:47:09.824Z,35.11
2023-05-21T05:48:09.846Z,35.70
2023-05-21T05:49:09.796Z,35.03
2023-05-21T05:50:09.908Z,32.90
2023-05-21T05:51:09.764Z,35.99
2023-05-21T05:52:09.773Z,34.82
2023-05-21T05:53:09.778Z,31.16
2023-05-21T05:54:09.756Z,33.50
2023-05-21T05:55:09.738Z,35.00
2023-05-21T05:56:09.751Z,34.71
2023-05-21T05:57:09.748Z,33.57
2023-05-21T05:58:09.714Z,33.17
2023-05-21T05:59:09.745Z,33.37
2023-05-21T06:00:09.802Z,34.70
2023-05-21T06:01:09.811Z,33.34
2023-05-21T06:02:09.893Z,31.05
2023-05-21T06:03:09.932Z,31.56
2023-05-21T06:04:09.896Z,31.23
2023-05-21T06:05:09.904Z,31.57
2023-05-21T06:06:10.021Z,30.72
2023-05-21T06:07:09.949Z,32.38
2023-05-21T06:08:09.965Z,28.01
2023-05-21T06:09:09.972Z,31.34
2023-05-21T06:10:09.968Z,33.54
2023-05-21T06:11:09.962Z,32.55
2023-05-21T06:12:14.612Z,31.12
2023-05-21T06:13:10.986Z,31.20
2023-05-21T06:14:09.951Z,31.63
2023-05-21T06:15:09.939Z,31.56
2023-05-21T06:16:10.140Z,31.58
2023-05-21T06:17:09.900Z,29.66
2023-05-21T06:18:09.999Z,29.25
2023-05-21T06:19:10.002Z,31.87
2023-05-21T06:20:09.948Z,31.44
2023-05-21T06:21:09.922Z,31.48
2023-05-21T06:22:09.914Z,33.44
2023-05-21T06:23:09.917Z,31.72
2023-05-21T06:24:09.930Z,33.16
2023-05-21T06:25:09.881Z,33.94
2023-05-21T06:26:09.869Z,29.10
2023-05-21T06:27:09.882Z,32.88
2023-05-21T06:28:09.859Z,32.23
2023-05-21T06:29:09.871Z,34.18
2023-05-21T06:30:09.865Z,30.64
2023-05-21T06:31:09.893Z,34.38
2023-05-21T06:32:09.971Z,33.29
2023-05-21T06:33:10.087Z,30.04
2023-05-21T06:34:10.099Z,33.45
2023-05-21T06:35:10.125Z,30.61
2023-05-21T06:36:10.173Z,32.46
2023-05-21T06:37:10.223Z,32.69
2023-05-21T06:38:10.329Z,33.86
2023-05-21T06:39:10.373Z,30.50
2023-05-21T06:40:10.375Z,30.43
2023-05-21T06:41:10.420Z,32.22
2023-05-21T06:42:10.507Z,31.13
2023-05-21T06:43:10.482Z,34.53
2023-05-21T06:44:10.569Z,31.78
2023-05-21T06:45:10.621Z,32.14
2023-05-21T06:46:10.666Z,34.49
2023-05-21T06:47:10.734Z,31.50
2023-05-21T06:48:10.902Z,32.33
2023-05-21T06:49:12.833Z,31.76
2023-05-21T06:50:10.755Z,33.04
2023-05-21T06:51:10.828Z,32.16
2023-05-21T06:52:10.821Z,33.26
2023-05-21T06:53:10.794Z,33.64
2023-05-21T06:54:10.740Z,32.64
2023-05-21T06:55:10.755Z,32.87
2023-05-21T06:56:10.853Z,32.63
2023-05-21T06:57:10.729Z,35.49
2023-05-21T06:58:10.694Z,33.84
2023-05-21T06:59:10.710Z,33.53
2023-05-21T07:00:10.719Z,32.15
2023-05-21T07:01:10.702Z,32.52
2023-05-21T07:02:10.727Z,32.97
2023-05-21T07:03:10.758Z,35.10
2023-05-21T07:04:10.772Z,32.24
2023-05-21T07:05:10.657Z,33.26
2023-05-21T07:06:10.683Z,35.09
2023-05-21T07:07:10.659Z,31.35
2023-05-21T07:08:11.916Z,30.35
2023-05-21T07:09:10.596Z,32.46
2023-05-21T07:10:10.656Z,31.54
2023-05-21T07:11:10.624Z,32.91
2023-05-21T07:12:10.660Z,32.06
2023-05-21T07:13:10.587Z,32.03
2023-05-21T07:14:10.621Z,33.58
2023-05-21T07:15:10.621Z,34.45
2023-05-21T07:16:10.634Z,32.80
2023-05-21T07:17:10.635Z,32.88
2023-05-21T07:18:10.598Z,33.69
2023-05-21T07:19:10.614Z,31.85
2023-05-21T07:20:10.574Z,31.32
2023-05-21T07:21:10.549Z,31.78
2023-05-21T07:22:10.564Z,32.62
2023-05-21T07:23:10.551Z,33.33
2023-05-21T07:24:10.535Z,34.90
2023-05-21T07:25:10.506Z,32.95
2023-05-21T07:26:10.514Z,36.40
2023-05-21T07:27:24.808Z,34.31
2023-05-21T07:28:11.491Z,34.55
2023-05-21T07:29:10.502Z,34.64
2023-05-21T07:30:10.478Z,34.92
2023-05-21T07:31:10.505Z,33.76
2023-05-21T07:32:10.488Z,35.29
2023-05-21T07:33:10.562Z,35.45
2023-05-21T07:34:10.452Z,36.31
2023-05-21T07:35:10.479Z,35.39
2023-05-21T07:36:10.434Z,38.73
2023-05-21T07:37:10.454Z,34.57
2023-05-21T07:38:10.438Z,38.04
2023-05-21T07:39:10.434Z,35.84
2023-05-21T07:40:10.421Z,37.98
2023-05-21T07:41:10.444Z,40.89
2023-05-21T07:42:10.407Z,37.47
2023-05-21T07:43:10.409Z,40.53
2023-05-21T07:44:10.483Z,40.04
2023-05-21T07:45:10.412Z,39.51
2023-05-21T07:46:10.432Z,38.31
2023-05-21T07:47:10.390Z,41.03
2023-05-21T07:48:10.470Z,41.12
2023-05-21T07:49:10.453Z,40.87
2023-05-21T07:50:10.455Z,43.42
2023-05-21T07:51:10.556Z,36.48
2023-05-21T07:52:10.597Z,38.77
2023-05-21T07:53:10.746Z,41.54
2023-05-21T07:54:10.727Z,42.38
2023-05-21T07:55:10.798Z,37.45
2023-05-21T07:56:10.818Z,31.47
2023-05-21T07:57:10.902Z,39.27
2023-05-21T07:58:11.045Z,40.74
2023-05-21T07:59:13.747Z,43.28
2023-05-21T08:00:11.062Z,40.31
2023-05-21T08:01:11.011Z,45.51
2023-05-21T08:02:11.008Z,32.56
2023-05-21T08:03:11.070Z,41.95
2023-05-21T08:04:11.079Z,35.02
2023-05-21T08:05:11.011Z,38.46
2023-05-21T08:06:10.968Z,40.71
2023-05-21T08:07:11.056Z,35.33
2023-05-21T08:08:10.939Z,41.78
2023-05-21T08:09:10.943Z,41.67
2023-05-21T08:10:10.942Z,35.75
2023-05-21T08:11:10.925Z,39.10
2023-05-21T08:12:10.972Z,34.44
2023-05-21T08:13:10.929Z,40.72
2023-05-21T08:14:10.912Z,40.32
2023-05-21T08:15:10.904Z,40.77
2023-05-21T08:16:10.921Z,37.21
2023-05-21T08:17:10.916Z,36.28
2023-05-21T08:18:10.967Z,36.84
2023-05-21T08:19:10.916Z,34.46
2023-05-21T08:20:10.870Z,41.98
2023-05-21T08:21:10.888Z,43.24
2023-05-21T08:22:10.873Z,34.47
2023-05-21T08:23:10.901Z,35.23
2023-05-21T08:24:10.859Z,34.87
2023-05-21T08:25:10.858Z,34.64
2023-05-21T08:26:10.881Z,35.93
2023-05-21T08:27:10.871Z,33.62
2023-05-21T08:28:10.896Z,38.11
2023-05-21T08:29:10.829Z,36.75
2023-05-21T08:30:10.848Z,38.03
2023-05-21T08:31:10.805Z,34.76
2023-05-21T08:32:10.856Z,36.44
2023-05-21T08:33:10.817Z,37.65
2023-05-21T08:34:10.760Z,36.13
2023-05-21T08:35:10.759Z,40.48
2023-05-21T08:36:10.766Z,35.13
2023-05-21T08:37:10.741Z,37.04
2023-05-21T08:38:10.765Z,39.57
2023-05-21T08:39:10.749Z,37.14
2023-05-21T08:40:10.757Z,40.72
2023-05-21T08:41:10.690Z,40.84
2023-05-21T08:42:10.729Z,37.26
2023-05-21T08:43:10.777Z,42.13
2023-05-21T08:44:10.703Z,39.60
2023-05-21T08:45:10.715Z,38.11
2023-05-21T08:46:10.712Z,42.02
2023-05-21T08:47:10.702Z,40.01
2023-05-21T08:48:10.708Z,39.31
2023-05-21T08:49:10.725Z,40.60
2023-05-21T08:50:10.657Z,39.12
2023-05-21T08:51:10.658Z,40.53
2023-05-21T08:52:10.655Z,36.43
2023-05-21T08:53:19.820Z,40.26
2023-05-21T08:54:11.664Z,40.66
2023-05-21T08:55:10.668Z,40.87
2023-05-21T08:56:10.654Z,41.50
2023-05-21T08:57:10.680Z,44.30
2023-05-21T08:58:10.639Z,41.89
2023-05-21T08:59:10.598Z,40.57
2023-05-21T09:00:10.633Z,41.95
2023-05-21T09:01:10.644Z,40.69
2023-05-21T09:02:10.644Z,42.56
2023-05-21T09:03:10.812Z,42.00
2023-05-21T09:04:20.385Z,42.09
2023-05-21T09:05:11.787Z,42.17
2023-05-21T09:06:10.771Z,42.38
2023-05-21T09:07:10.806Z,42.72
2023-05-21T09:08:10.788Z,43.03
2023-05-21T09:09:10.737Z,43.36
2023-05-21T09:10:10.752Z,41.06
2023-05-21T09:11:10.773Z,39.87
2023-05-21T09:12:10.704Z,40.42
2023-05-21T09:13:10.821Z,42.92
2023-05-21T09:14:10.822Z,41.57
2023-05-21T09:15:10.936Z,41.86
2023-05-21T09:16:11.046Z,41.43
2023-05-21T09:17:11.040Z,42.82
2023-05-21T09:18:11.146Z,41.10
2023-05-21T09:19:11.172Z,41.72
2023-05-21T09:20:11.236Z,37.75
2023-05-21T09:21:11.249Z,41.52
2023-05-21T09:22:11.274Z,42.28
2023-05-21T09:23:11.349Z,43.87
2023-05-21T09:24:11.473Z,41.78
2023-05-21T09:25:11.476Z,41.04
2023-05-21T09:26:11.519Z,40.55
2023-05-21T09:27:11.568Z,43.84
2023-05-21T09:28:11.625Z,43.10
2023-05-21T09:29:11.710Z,42.61
2023-05-21T09:30:11.750Z,43.48
2023-05-21T09:31:11.826Z,43.11
2023-05-21T09:32:11.872Z,43.80
2023-05-21T09:33:11.944Z,41.31
2023-05-21T09:34:11.943Z,44.52
2023-05-21T09:35:11.931Z,46.37
2023-05-21T09:36:12.017Z,43.63
2023-05-21T09:37:23.820Z,43.47
2023-05-21T09:38:13.029Z,43.77
2023-05-21T09:39:12.012Z,44.25
2023-05-21T09:40:12.008Z,43.65
2023-05-21T09:41:12.030Z,45.57
2023-05-21T09:42:11.980Z,48.19
2023-05-21T09:43:11.977Z,43.83
2023-05-21T09:44:12.018Z,46.38
2023-05-21T09:45:12.025Z,43.92
2023-05-21T09:46:11.980Z,47.23
2023-05-21T09:47:11.966Z,42.69
2023-05-21T09:48:11.966Z,46.18
2023-05-21T09:49:11.974Z,45.76
2023-05-21T09:50:12.004Z,44.47
2023-05-21T09:51:12.022Z,47.39
2023-05-21T09:52:12.106Z,46.53
2023-05-21T09:53:12.177Z,45.56
2023-05-21T09:54:12.186Z,48.31
2023-05-21T09:55:12.176Z,44.27
2023-05-21T09:56:12.213Z,48.38
2023-05-21T09:57:12.235Z,47.04
2023-05-21T09:58:12.320Z,47.10
2023-05-21T09:59:12.326Z,48.85
2023-05-21T10:00:12.345Z,45.69
2023-05-21T10:01:12.332Z,49.79
2023-05-21T10:02:12.450Z,46.37
2023-05-21T10:03:12.543Z,45.53
2023-05-21T10:04:12.489Z,50.83
2023-05-21T10:05:12.477Z,46.84
2023-05-21T10:06:12.502Z,48.11
2023-05-21T10:07:12.510Z,47.99
2023-05-21T10:08:12.575Z,47.30
2023-05-21T10:09:12.589Z,48.74
2023-05-21T10:10:12.611Z,50.35
2023-05-21T10:11:12.614Z,46.25
2023-05-21T10:12:12.635Z,47.01
2023-05-21T10:13:12.665Z,48.42
2023-05-21T10:14:12.653Z,46.21
2023-05-21T10:15:12.741Z,48.68
2023-05-21T10:16:12.841Z,46.00
2023-05-21T10:17:12.774Z,46.83
2023-05-21T10:18:12.821Z,46.40
2023-05-21T10:19:12.914Z,47.62
2023-05-21T10:20:12.857Z,47.30
2023-05-21T10:21:12.877Z,46.73
2023-05-21T10:22:12.901Z,47.60
2023-05-21T10:23:12.987Z,44.46
2023-05-21T10:24:12.943Z,46.61
2023-05-21T10:25:12.935Z,48.98
2023-05-21T10:26:13.033Z,47.00
2023-05-21T10:27:13.011Z,45.17
2023-05-21T10:28:13.023Z,46.93
2023-05-21T10:29:13.024Z,49.37
2023-05-21T10:30:13.036Z,47.53
2023-05-21T10:31:13.063Z,47.66
2023-05-21T10:32:13.125Z,47.45
2023-05-21T10:33:13.117Z,46.82
2023-05-21T10:34:13.100Z,49.70
2023-05-21T10:35:13.090Z,50.03
2023-05-21T10:36:13.175Z,51.28
2023-05-21T10:37:13.163Z,52.19
2023-05-21T10:38:13.211Z,49.71
2023-05-21T10:39:13.150Z,50.45
2023-05-21T10:40:13.211Z,51.16
2023-05-21T10:41:13.217Z,49.43
2023-05-21T10:42:13.179Z,50.78
2023-05-21T10:43:13.200Z,50.80
2023-05-21T10:44:13.256Z,49.16
2023-05-21T10:45:13.254Z,48.10
2023-05-21T10:46:13.373Z,51.23
2023-05-21T10:47:13.263Z,48.62
2023-05-21T10:48:13.335Z,49.23
2023-05-21T10:49:13.305Z,50.22
2023-05-21T10:50:13.357Z,47.17
2023-05-21T10:51:13.323Z,46.94
2023-05-21T10:52:13.325Z,47.90
2023-05-21T10:53:13.363Z,48.11
2023-05-21T10:54:13.340Z,47.20
2023-05-21T10:55:13.375Z,51.03
2023-05-21T10:56:13.374Z,49.75
2023-05-21T10:57:13.414Z,49.47
2023-05-21T10:58:13.443Z,47.63
2023-05-21T10:59:13.427Z,48.69
2023-05-21T11:00:13.463Z,48.53
2023-05-21T11:01:13.525Z,51.13
2023-05-21T11:02:13.472Z,46.27
2023-05-21T11:03:13.692Z,47.14
2023-05-21T11:04:13.529Z,48.90
2023-05-21T11:05:13.509Z,47.99
2023-05-21T11:06:13.530Z,47.61
2023-05-21T11:07:13.541Z,49.76
2023-05-21T11:08:13.615Z,47.10
2023-05-21T11:09:13.605Z,47.80
2023-05-21T11:10:13.582Z,47.54
2023-05-21T11:11:13.594Z,46.10
2023-05-21T11:12:13.638Z,52.13
2023-05-21T11:13:13.636Z,48.73
2023-05-21T11:14:13.635Z,49.02
2023-05-21T11:15:13.653Z,49.03
2023-05-21T11:16:13.639Z,46.31
2023-05-21T11:17:13.869Z,48.11
2023-05-21T11:18:13.669Z,46.16
2023-05-21T11:19:13.728Z,45.06
2023-05-21T11:20:13.784Z,51.66
2023-05-21T11:21:13.700Z,51.98
2023-05-21T11:22:13.715Z,49.85
2023-05-21T11:23:13.709Z,48.36
2023-05-21T11:24:13.719Z,48.34
2023-05-21T11:25:13.702Z,48.36
2023-05-21T11:26:13.734Z,49.11
2023-05-21T11:27:13.750Z,46.73
2023-05-21T11:28:13.752Z,50.89
2023-05-21T11:29:13.697Z,49.19
2023-05-21T11:30:13.762Z,51.30
2023-05-21T11:31:13.765Z,48.25
2023-05-21T11:32:13.761Z,51.79
2023-05-21T11:33:14.218Z,49.99
2023-05-21T11:34:13.765Z,53.36
2023-05-21T11:35:13.760Z,52.65
2023-05-21T11:36:13.734Z,49.25
2023-05-21T11:37:13.769Z,50.16
2023-05-21T11:38:13.788Z,49.78
2023-05-21T11:39:13.727Z,52.83
2023-05-21T11:40:13.765Z,51.51
2023-05-21T11:41:13.761Z,51.78
2023-05-21T11:42:13.734Z,50.19
2023-05-21T11:43:13.733Z,48.87
2023-05-21T11:44:13.736Z,51.66
2023-05-21T11:45:13.822Z,51.84
2023-05-21T11:46:13.752Z,52.23
2023-05-21T11:47:13.783Z,50.40
2023-05-21T11:48:13.789Z,51.67
2023-05-21T11:49:13.725Z,51.09
2023-05-21T11:50:13.836Z,53.09
2023-05-21T11:51:13.757Z,51.27
2023-05-21T11:52:13.766Z,51.71
2023-05-21T11:53:13.693Z,54.11
2023-05-21T11:54:13.702Z,52.86
2023-05-21T11:55:13.740Z,54.94
2023-05-21T11:56:13.728Z,54.97
2023-05-21T11:57:13.744Z,54.33
2023-05-21T11:58:13.792Z,54.36
2023-05-21T11:59:13.738Z,53.87
2023-05-21T12:00:13.780Z,54.01
2023-05-21T12:01:13.754Z,53.44
2023-05-21T12:02:13.770Z,53.14
2023-05-21T12:03:13.842Z,51.31
2023-05-21T12:04:13.759Z,51.82
2023-05-21T12:05:13.779Z,50.01
2023-05-21T12:06:13.824Z,52.11
2023-05-21T12:07:13.731Z,51.11
2023-05-21T12:08:13.764Z,50.81
2023-05-21T12:09:13.787Z,51.72
2023-05-21T12:10:13.733Z,52.93
2023-05-21T12:11:13.767Z,52.24
2023-05-21T12:12:13.760Z,51.95
2023-05-21T12:13:13.736Z,51.64
2023-05-21T12:14:13.804Z,50.45
2023-05-21T12:15:13.815Z,53.74
2023-05-21T12:16:13.789Z,52.44
2023-05-21T12:17:13.764Z,52.38
2023-05-21T12:18:13.823Z,53.45
2023-05-21T12:19:13.782Z,54.20
2023-05-21T12:20:13.699Z,54.36
2023-05-21T12:21:13.759Z,54.44
2023-05-21T12:22:13.728Z,53.53
2023-05-21T12:23:13.737Z,53.47
2023-05-21T12:24:13.756Z,53.26
2023-05-21T12:25:13.701Z,53.18
2023-05-21T12:26:13.768Z,51.64
2023-05-21T12:27:13.767Z,51.93
2023-05-21T12:28:13.705Z,53.06
2023-05-21T12:29:13.737Z,52.09
2023-05-21T12:30:13.729Z,53.63
2023-05-21T12:31:13.741Z,52.89
2023-05-21T12:32:13.871Z,52.92
2023-05-21T12:33:13.779Z,53.81
2023-05-21T12:34:13.831Z,50.13
2023-05-21T12:35:13.875Z,48.98
2023-05-21T12:36:13.847Z,51.67
2023-05-21T12:37:13.891Z,52.52
2023-05-21T12:38:13.949Z,51.00
2023-05-21T12:39:13.954Z,53.12
2023-05-21T12:40:13.974Z,51.25
2023-05-21T12:41:14.042Z,52.24
2023-05-21T12:42:14.027Z,53.03
2023-05-21T12:43:14.034Z,51.05
2023-05-21T12:44:14.104Z,52.79
2023-05-21T12:45:14.117Z,54.41
2023-05-21T12:46:14.182Z,53.94
2023-05-21T12:47:14.163Z,53.43
2023-05-21T12:48:14.140Z,53.98
2023-05-21T12:49:14.204Z,52.95
2023-05-21T12:50:14.273Z,54.44
2023-05-21T12:51:14.259Z,53.85
2023-05-21T12:52:14.306Z,51.34